This is the latest recevied weather packets stored in our database for station/object HI6LT. If no packets are shown the sender has not sent any weather packets the latest 10 day(s).
| Time | Temp. | Humidity | Pressure | Rain* | Wind** | Luminosity | Snow |
|---|---|---|---|---|---|---|---|
| 1777623099 | 13.89° C | 98% | 1032 hPa | 0 mm | - | - | - |
| 1777621298 | 13.33° C | 97% | 1031.6 hPa | 0 mm | - | - | - |
| 1777620983 | 15° C | 90% | 1031.8 hPa | 0 mm | - | - | - |
| 1777620758 | 13.33° C | 96% | 1031.4 hPa | 0 mm | - | - | - |
| 1777619500 | 13.89° C | 95% | 1032.4 hPa | 0 mm | - | - | - |
| 1777619497 | 13.89° C | 94% | 1031.4 hPa | 0 mm | - | - | - |
| 1777618056 | 15° C | 92% | 1031.8 hPa | 0 mm | - | - | - |
| 1777617776 | 14.44° C | 95% | 1032.7 hPa | 0 mm | - | - | - |
| 1777617705 | 15° C | 90% | 1031.8 hPa | 0 mm | - | - | - |
| 1777615904 | 13.89° C | 95% | 1032.4 hPa | 0 mm | - | - | - |
| 1777615583 | 14.44° C | 95% | 1033.6 hPa | 0 mm | - | - | - |
| 1777615363 | 13.89° C | 95% | 1032.6 hPa | 0 mm | - | - | - |
| 1777614219 | 14.44° C | 98% | 1033.9 hPa | 0 mm | - | - | - |
| 1777614103 | 14.44° C | 95% | 1032.7 hPa | 0 mm | - | - | - |
| 1777612663 | 14.44° C | 95% | 1033.4 hPa | 0 mm | - | - | - |
| 1777612419 | 15° C | 99% | 1034.8 hPa | 0 mm | - | - | - |
| 1777612303 | 14.44° C | 95% | 1033.6 hPa | 0 mm | - | - | - |
| 1777610501 | 14.44° C | 98% | 1033.9 hPa | 0 mm | - | - | - |
| 1777610453 | 15° C | 99% | 1034.1 hPa | 0 mm | - | - | - |
| 1777609960 | 14.44° C | 99% | 1034.1 hPa | 0 mm | - | - | - |
| 1777608983 | 15° C | 98% | 1034.3 hPa | 0 mm | - | - | - |
| 1777608699 | 15° C | 99% | 1034.8 hPa | 0 mm | - | - | - |
| 1777607783 | 15° C | 99% | 1034.4 hPa | 0 mm | - | - | - |
| 1777607259 | 15° C | 99% | 1034.1 hPa | 0 mm | - | - | - |
| 1777606899 | 15° C | 99% | 1034.1 hPa | 0 mm | - | - | - |
* Rain latest hour (hover to see other rain measurements)
** Current wind speed in m/s (hover to see current wind gust speed)